Time;durP1;ratioP1;P1;durP2;ratioP2;P2;SDS_P1;SDS_P2;PMS_P1;PMS_P2;Temp;Humidity;BMP_temperature;BMP_pressure;BME280_temperature;BME280_humidity;BME280_pressure;Samples;Min_cycle;Max_cycle;Signal;HPM_P1;HPM_P2
2022/04/05 00:00:58;;;;;;;14.52;8.55;;;9.20;58.40;;;;;;5054817;28;20052;-56
2022/04/05 00:03:24;;;;;;;16.58;8.75;;;9.10;59.30;;;;;;5073506;28;20492;-56
2022/04/05 00:05:50;;;;;;;12.48;8.50;;;9.00;61.90;;;;;;5073197;28;20020;-55
2022/04/05 00:08:16;;;;;;;10.65;8.15;;;8.80;62.00;;;;;;5073455;28;20033;-54
2022/04/05 00:10:43;;;;;;;12.45;8.35;;;8.80;61.70;;;;;;5072078;28;20104;-52
2022/04/05 00:13:09;;;;;;;11.15;8.65;;;8.80;61.10;;;;;;5073267;28;20122;-53
2022/04/05 00:15:35;;;;;;;11.10;8.80;;;8.80;61.90;;;;;;5072956;28;20180;-56
2022/04/05 00:18:01;;;;;;;10.20;7.80;;;8.70;61.90;;;;;;5072906;28;20029;-53
2022/04/05 00:20:27;;;;;;;12.15;9.40;;;8.70;62.00;;;;;;5072942;28;20040;-53
2022/04/05 00:22:58;;;;;;;11.80;9.02;;;8.80;61.20;;;;;;5072313;28;20044;-53
2022/04/05 00:25:24;;;;;;;11.05;8.88;;;8.80;61.10;;;;;;5055415;28;20107;-54
2022/04/05 00:27:50;;;;;;;11.80;8.65;;;8.70;61.00;;;;;;5072488;28;20528;-55
2022/04/05 00:30:15;;;;;;;11.55;8.32;;;8.80;60.90;;;;;;5072592;28;20035;-54
2022/04/05 00:32:42;;;;;;;9.98;8.75;;;8.80;60.80;;;;;;5072357;28;20032;-54
2022/04/05 00:35:08;;;;;;;9.68;7.95;;;8.80;60.80;;;;;;5054593;28;20044;-56
2022/04/05 00:37:35;;;;;;;10.60;8.50;;;8.70;62.10;;;;;;5071797;28;20055;-55
2022/04/05 00:40:04;;;;;;;11.20;8.20;;;8.60;64.20;;;;;;5072764;28;20074;-53
2022/04/05 00:42:30;;;;;;;13.38;8.60;;;8.60;65.50;;;;;;5072738;28;20052;-59
2022/04/05 00:44:56;;;;;;;12.77;9.15;;;8.40;65.50;;;;;;5054194;28;20113;-53
2022/04/05 00:47:23;;;;;;;10.20;8.20;;;8.40;66.90;;;;;;5072741;28;20032;-55
2022/04/05 00:49:51;;;;;;;11.23;8.95;;;8.30;67.30;;;;;;5072032;28;20025;-55
2022/04/05 00:52:21;;;;;;;10.25;8.50;;;8.30;67.00;;;;;;5072295;28;20051;-55
2022/04/05 00:54:49;;;;;;;11.32;8.65;;;8.40;66.50;;;;;;5053920;28;20025;-56
2022/04/05 00:57:19;;;;;;;11.93;8.75;;;8.40;66.20;;;;;;5072524;28;20048;-52
2022/04/05 00:59:48;;;;;;;11.82;9.02;;;8.50;65.80;;;;;;5046926;28;20074;-56
2022/04/05 01:02:17;;;;;;;11.77;9.10;;;8.40;66.00;;;;;;5072649;28;20027;-55
2022/04/05 01:04:43;;;;;;;10.85;9.13;;;8.40;67.40;;;;;;5053865;28;20077;-53
2022/04/05 01:07:14;;;;;;;12.52;8.63;;;8.30;67.50;;;;;;5072450;28;20020;-56
2022/04/05 01:09:40;;;;;;;12.07;9.13;;;8.40;66.90;;;;;;5071776;28;20030;-56
2022/04/05 01:12:08;;;;;;;15.55;8.77;;;8.30;67.10;;;;;;5054619;28;20067;-55
2022/04/05 01:14:34;;;;;;;11.45;9.18;;;8.30;68.70;;;;;;5072165;28;20064;-60
2022/04/05 01:16:59;;;;;;;10.55;8.65;;;8.30;68.50;;;;;;5054617;28;20056;-56
2022/04/05 01:19:27;;;;;;;12.65;9.07;;;8.30;69.20;;;;;;5054573;28;20119;-54
2022/04/05 01:21:53;;;;;;;12.73;9.32;;;8.30;68.90;;;;;;5054083;28;20028;-54
2022/04/05 01:24:18;;;;;;;12.02;8.80;;;8.30;69.80;;;;;;5072910;28;20159;-53
2022/04/05 01:26:46;;;;;;;12.55;9.32;;;8.10;71.10;;;;;;5072135;28;20025;-55
2022/04/05 01:29:13;;;;;;;13.52;9.07;;;8.00;72.50;;;;;;5054532;28;20045;-53
2022/04/05 01:31:59;;;;;;;12.70;9.38;;;8.00;72.20;;;;;;5072049;28;20032;-54
2022/04/05 01:34:27;;;;;;;11.95;9.27;;;8.10;71.80;;;;;;5049314;28;20040;-53
2022/04/05 01:36:58;;;;;;;11.88;8.90;;;8.10;71.50;;;;;;5071290;28;20021;-54
2022/04/05 01:39:26;;;;;;;11.77;9.10;;;8.10;71.00;;;;;;5072402;28;20028;-53
2022/04/05 01:42:03;;;;;;;10.85;8.65;;;8.10;70.70;;;;;;5053780;28;20427;-55
2022/04/05 01:44:30;;;;;;;12.05;9.00;;;8.10;70.80;;;;;;5069140;28;20032;-52
2022/04/05 01:46:56;;;;;;;11.00;8.55;;;8.00;75.60;;;;;;5053731;28;20025;-50
2022/04/05 01:49:23;;;;;;;11.77;9.32;;;7.90;78.00;;;;;;5054384;28;20028;-51
2022/04/05 01:51:49;;;;;;;12.85;9.60;;;7.80;77.70;;;;;;5053325;28;20044;-54
2022/04/05 01:54:17;;;;;;;10.73;8.70;;;7.90;74.80;;;;;;5072378;28;20032;-55
2022/04/05 01:56:48;;;;;;;10.85;9.13;;;7.90;73.90;;;;;;5053707;28;20029;-54
2022/04/05 01:59:26;;;;;;;10.88;8.75;;;8.00;73.00;;;;;;5072443;28;20123;-54
2022/04/05 02:01:52;;;;;;;12.32;9.13;;;8.00;72.00;;;;;;5071467;28;20024;-51
2022/04/05 02:04:18;;;;;;;10.90;9.38;;;8.00;70.20;;;;;;5072145;28;20127;-51
2022/04/05 02:06:45;;;;;;;12.10;8.65;;;8.20;69.20;;;;;;5071177;28;20025;-54
2022/04/05 02:09:13;;;;;;;11.98;8.23;;;8.20;68.60;;;;;;5053891;28;20020;-53
2022/04/05 02:11:40;;;;;;;10.77;8.98;;;8.30;68.00;;;;;;5071318;28;20027;-56
2022/04/05 02:14:06;;;;;;;10.98;8.10;;;8.30;67.70;;;;;;5054018;28;20128;-50
2022/04/05 02:16:32;;;;;;;12.48;8.23;;;8.30;67.60;;;;;;5054163;28;20529;-55
2022/04/05 02:18:58;;;;;;;10.68;8.18;;;8.30;67.60;;;;;;5071055;28;20025;-56
2022/04/05 02:21:24;;;;;;;10.80;8.52;;;8.40;67.00;;;;;;5071785;28;20027;-54
2022/04/05 02:23:49;;;;;;;11.07;8.05;;;8.40;66.80;;;;;;5071213;28;20478;-54
2022/04/05 02:26:16;;;;;;;14.80;7.95;;;8.40;66.80;;;;;;5071420;28;20477;-52
2022/04/05 02:28:42;;;;;;;8.63;7.45;;;8.30;66.60;;;;;;5071105;28;20370;-51
2022/04/05 02:31:08;;;;;;;11.52;7.97;;;8.30;66.70;;;;;;5071730;28;20029;-52
2022/04/05 02:33:34;;;;;;;11.00;8.48;;;8.40;66.40;;;;;;5073540;28;20028;-52
2022/04/05 02:36:00;;;;;;;9.50;7.20;;;8.40;66.20;;;;;;5057353;28;20035;-50
2022/04/05 02:38:26;;;;;;;8.65;7.38;;;8.50;66.10;;;;;;5075397;28;20040;-54
2022/04/05 02:40:52;;;;;;;9.77;7.63;;;8.50;65.80;;;;;;5056935;28;20029;-56
2022/04/05 02:43:18;;;;;;;11.57;7.53;;;8.50;65.50;;;;;;5057429;28;20551;-54
2022/04/05 02:45:44;;;;;;;8.43;7.15;;;8.50;65.50;;;;;;5057429;28;20059;-55
2022/04/05 02:48:09;;;;;;;9.52;7.75;;;8.50;65.90;;;;;;5075917;28;20086;-53
2022/04/05 02:50:36;;;;;;;11.95;7.65;;;8.50;65.30;;;;;;5057283;28;20074;-54
2022/04/05 02:53:01;;;;;;;7.97;6.90;;;8.60;65.30;;;;;;5074902;28;20033;-53
2022/04/05 02:55:27;;;;;;;8.63;7.28;;;8.50;65.20;;;;;;5075387;28;20044;-50
2022/04/05 02:57:53;;;;;;;10.35;7.05;;;8.60;65.00;;;;;;5074277;28;20090;-53
2022/04/05 03:00:19;;;;;;;7.95;6.80;;;8.70;65.60;;;;;;5054015;28;20482;-55
2022/04/05 03:02:46;;;;;;;7.38;6.55;;;8.70;64.60;;;;;;5055062;28;20039;-53
2022/04/05 03:05:13;;;;;;;8.02;6.70;;;8.70;64.80;;;;;;5055673;28;20108;-55
2022/04/05 03:07:39;;;;;;;8.98;6.50;;;8.60;65.50;;;;;;5053855;28;20108;-61
2022/04/05 03:10:07;;;;;;;9.45;6.15;;;8.60;64.80;;;;;;5054896;28;20120;-51
2022/04/05 03:12:37;;;;;;;7.90;6.35;;;8.60;65.00;;;;;;5054728;28;20033;-55
2022/04/05 03:15:06;;;;;;;7.90;6.55;;;8.60;64.50;;;;;;5053571;28;20025;-53
2022/04/05 03:17:32;;;;;;;7.60;5.80;;;8.70;64.40;;;;;;5055040;28;20118;-53
2022/04/05 03:19:59;;;;;;;9.32;6.68;;;8.70;64.10;;;;;;5054781;28;20116;-52
2022/04/05 03:22:25;;;;;;;7.85;6.25;;;8.70;64.00;;;;;;5054895;28;20048;-51
2022/04/05 03:24:51;;;;;;;9.40;6.15;;;8.70;64.10;;;;;;5054301;28;20386;-49
2022/04/05 03:27:17;;;;;;;8.73;6.05;;;8.70;63.90;;;;;;5054958;28;20122;-52
2022/04/05 03:29:42;;;;;;;8.75;6.75;;;8.70;64.20;;;;;;5053723;28;20056;-61
2022/04/05 03:32:09;;;;;;;11.15;6.68;;;8.80;63.90;;;;;;5054652;28;20427;-56
2022/04/05 03:34:35;;;;;;;9.13;6.15;;;8.80;63.60;;;;;;5054508;28;20048;-57
2022/04/05 03:37:01;;;;;;;9.13;6.38;;;8.80;63.50;;;;;;5053852;28;20028;-56
2022/04/05 03:39:27;;;;;;;9.32;6.78;;;8.80;63.40;;;;;;5053841;28;20028;-54
2022/04/05 03:41:52;;;;;;;8.63;6.07;;;8.90;63.30;;;;;;5052059;28;20511;-52
2022/04/05 03:44:18;;;;;;;7.88;6.07;;;8.90;63.00;;;;;;5053486;28;20033;-53
2022/04/05 03:46:44;;;;;;;8.07;5.97;;;8.90;62.80;;;;;;5049394;28;20102;-60
2022/04/05 03:49:10;;;;;;;8.35;6.10;;;8.90;62.60;;;;;;5051561;28;20072;-52
2022/04/05 03:51:35;;;;;;;8.48;5.80;;;9.00;62.20;;;;;;5051679;28;20424;-53
2022/04/05 03:54:02;;;;;;;6.95;5.90;;;9.00;62.20;;;;;;5050097;28;20029;-54
2022/04/05 03:56:28;;;;;;;9.25;6.30;;;9.00;62.20;;;;;;5053873;28;20021;-53
2022/04/05 03:58:54;;;;;;;7.65;6.03;;;9.00;61.80;;;;;;5053871;28;20025;-50
2022/04/05 04:01:19;;;;;;;8.32;6.22;;;9.00;61.80;;;;;;5055850;28;20424;-52
2022/04/05 04:03:45;;;;;;;9.07;5.95;;;9.00;61.50;;;;;;5073670;28;20465;-53
2022/04/05 04:06:11;;;;;;;10.02;6.38;;;9.00;62.00;;;;;;5073874;28;20020;-52
2022/04/05 04:08:37;;;;;;;9.27;5.78;;;9.10;61.30;;;;;;5055222;28;20025;-55
2022/04/05 04:11:02;;;;;;;8.23;6.43;;;9.10;61.30;;;;;;5055470;28;20484;-57
2022/04/05 04:13:28;;;;;;;7.55;5.70;;;9.10;61.00;;;;;;5073858;28;20525;-55
2022/04/05 04:15:56;;;;;;;8.90;5.85;;;9.10;61.00;;;;;;5073167;28;20024;-55
2022/04/05 04:18:22;;;;;;;6.15;5.38;;;9.10;60.90;;;;;;5074074;28;20054;-55
2022/04/05 04:20:48;;;;;;;6.43;5.60;;;9.20;60.80;;;;;;5073444;28;20416;-58
2022/04/05 04:23:15;;;;;;;7.72;6.13;;;9.20;60.70;;;;;;5074083;28;20039;-56
2022/04/05 04:25:41;;;;;;;8.20;5.72;;;9.20;60.70;;;;;;5073527;28;20021;-56
2022/04/05 04:28:09;;;;;;;8.48;5.78;;;9.20;60.50;;;;;;5055405;28;20029;-53
2022/04/05 04:30:36;;;;;;;8.45;5.63;;;9.20;60.60;;;;;;5073972;28;20040;-58
2022/04/05 04:33:03;;;;;;;12.35;5.25;;;9.20;60.90;;;;;;5055177;28;20766;-52
2022/04/05 04:35:29;;;;;;;9.05;5.60;;;9.20;60.90;;;;;;5073372;28;20035;-55
2022/04/05 04:37:55;;;;;;;8.65;5.65;;;9.20;60.70;;;;;;5072730;28;20119;-52
2022/04/05 04:40:22;;;;;;;8.23;5.60;;;9.30;60.70;;;;;;5073153;28;20127;-54
2022/04/05 04:42:48;;;;;;;7.30;5.32;;;9.30;60.60;;;;;;5054433;28;20033;-58
2022/04/05 04:45:14;;;;;;;8.30;5.18;;;9.30;60.70;;;;;;5073606;28;20021;-53
2022/04/05 04:47:40;;;;;;;6.38;5.38;;;9.30;60.50;;;;;;5073462;28;20024;-55
2022/04/05 04:50:08;;;;;;;7.55;5.15;;;9.40;60.70;;;;;;5072776;28;20089;-55
2022/04/05 04:52:34;;;;;;;6.63;5.15;;;9.40;60.50;;;;;;5072824;28;20025;-53
2022/04/05 04:55:03;;;;;;;6.65;5.15;;;9.40;60.60;;;;;;5055146;28;20038;-54
2022/04/05 04:57:28;;;;;;;7.47;5.30;;;9.40;60.50;;;;;;5054491;28;20489;-55
2022/04/05 04:59:54;;;;;;;9.10;5.63;;;9.40;60.40;;;;;;5072588;28;20053;-56
2022/04/05 05:02:22;;;;;;;9.05;5.45;;;9.40;60.30;;;;;;5072921;28;20338;-52
2022/04/05 05:04:52;;;;;;;7.70;5.18;;;9.50;60.20;;;;;;5054681;28;20119;-58
2022/04/05 05:07:18;;;;;;;8.93;5.97;;;9.50;60.10;;;;;;5055294;28;20032;-57
2022/04/05 05:09:45;;;;;;;9.38;5.10;;;9.50;60.10;;;;;;5073104;28;20441;-56
2022/04/05 05:12:11;;;;;;;7.20;5.38;;;9.50;60.10;;;;;;5072962;28;20052;-56
2022/04/05 05:14:38;;;;;;;6.28;4.68;;;9.60;60.00;;;;;;5072444;28;20063;-57
2022/04/05 05:17:04;;;;;;;10.52;5.35;;;9.60;60.00;;;;;;5051676;28;20040;-60
2022/04/05 05:19:30;;;;;;;10.88;5.15;;;9.60;59.80;;;;;;5071057;28;20099;-55
2022/04/05 05:21:56;;;;;;;9.15;5.10;;;9.50;59.80;;;;;;5068199;28;20115;-58
2022/04/05 05:24:21;;;;;;;8.68;5.72;;;9.60;59.80;;;;;;5052932;28;20523;-51
2022/04/05 05:26:47;;;;;;;9.40;5.38;;;9.60;59.60;;;;;;5053548;28;20354;-55
2022/04/05 05:29:15;;;;;;;12.77;6.82;;;9.60;59.60;;;;;;5070459;28;20458;-54
2022/04/05 05:31:41;;;;;;;9.75;6.30;;;9.60;59.40;;;;;;5070745;28;20028;-61
2022/04/05 05:34:06;;;;;;;10.00;6.05;;;9.70;59.40;;;;;;5052922;28;20472;-52
2022/04/05 05:36:32;;;;;;;10.32;5.65;;;9.70;59.30;;;;;;5053572;28;20028;-54
2022/04/05 05:38:58;;;;;;;7.60;5.88;;;9.70;59.50;;;;;;5053099;28;20441;-55
2022/04/05 05:41:24;;;;;;;12.95;7.03;;;9.70;59.70;;;;;;5072037;28;20365;-58
2022/04/05 05:43:49;;;;;;;7.95;5.25;;;9.70;59.80;;;;;;5069277;28;20111;-56
2022/04/05 05:46:15;;;;;;;15.73;7.68;;;9.70;59.60;;;;;;5070535;28;20040;-51
2022/04/05 05:48:42;;;;;;;10.27;5.78;;;9.80;59.40;;;;;;5071145;28;20028;-53
2022/04/05 05:51:08;;;;;;;9.55;5.55;;;9.80;59.40;;;;;;5071451;28;20224;-54
2022/04/05 05:53:34;;;;;;;8.45;6.22;;;9.80;59.50;;;;;;5070651;28;20052;-56
2022/04/05 05:56:00;;;;;;;11.68;6.10;;;9.80;59.40;;;;;;5071313;28;20107;-52
2022/04/05 05:58:26;;;;;;;10.65;5.85;;;9.90;59.20;;;;;;5053893;28;20113;-50
2022/04/05 06:00:52;;;;;;;10.25;5.80;;;9.90;59.20;;;;;;5070161;28;20056;-53
2022/04/05 06:03:18;;;;;;;7.60;5.40;;;10.00;59.00;;;;;;5052300;28;20424;-58
2022/04/05 06:05:44;;;;;;;10.13;5.80;;;10.00;59.30;;;;;;5053963;28;20047;-56
2022/04/05 06:08:10;;;;;;;10.85;5.82;;;10.00;60.00;;;;;;5070252;28;20021;-53
2022/04/05 06:10:36;;;;;;;7.32;6.03;;;10.00;60.40;;;;;;5054150;28;20040;-54
2022/04/05 06:13:02;;;;;;;8.52;6.55;;;9.90;61.40;;;;;;5053577;28;20060;-54
2022/04/05 06:15:29;;;;;;;11.85;6.75;;;9.90;62.40;;;;;;5071984;28;20372;-53
2022/04/05 06:17:57;;;;;;;10.27;6.78;;;9.90;62.50;;;;;;5053227;28;20089;-52
2022/04/05 06:20:24;;;;;;;10.48;6.60;;;9.80;62.40;;;;;;5071720;28;20500;-54
2022/04/05 06:22:54;;;;;;;11.63;7.30;;;9.80;62.40;;;;;;5071519;28;20531;-61
2022/04/05 06:25:27;;;;;;;12.50;8.13;;;9.80;63.30;;;;;;5053776;28;20032;-55
2022/04/05 06:27:54;;;;;;;10.45;6.63;;;9.80;63.30;;;;;;5071640;28;20029;-54
2022/04/05 06:30:19;;;;;;;7.90;6.57;;;9.80;64.10;;;;;;5071575;28;20031;-51
2022/04/05 06:32:47;;;;;;;11.85;7.90;;;9.70;63.70;;;;;;5071868;28;20029;-56
2022/04/05 06:35:13;;;;;;;8.32;6.30;;;9.60;65.20;;;;;;5071538;28;20074;-54
2022/04/05 06:37:43;;;;;;;8.07;6.60;;;9.70;64.10;;;;;;5053732;28;20048;-53
2022/04/05 06:40:10;;;;;;;8.75;6.28;;;9.80;63.60;;;;;;5053054;28;20108;-59
2022/04/05 06:42:41;;;;;;;12.88;6.82;;;9.80;63.30;;;;;;5071998;28;20112;-53
2022/04/05 06:45:08;;;;;;;10.25;6.30;;;9.80;63.90;;;;;;5071482;28;20056;-54
2022/04/05 06:47:34;;;;;;;8.00;6.43;;;9.90;64.00;;;;;;5071649;28;20040;-53
2022/04/05 06:50:00;;;;;;;10.00;6.03;;;9.90;64.10;;;;;;5071322;28;20029;-53
2022/04/05 06:52:26;;;;;;;11.10;6.25;;;9.90;64.50;;;;;;5054216;28;20112;-55
2022/04/05 06:54:51;;;;;;;9.70;5.72;;;9.90;65.30;;;;;;5053733;28;20440;-54
2022/04/05 06:57:17;;;;;;;7.70;5.90;;;9.80;65.20;;;;;;5052222;28;20025;-55
2022/04/05 06:59:43;;;;;;;11.65;5.60;;;9.80;65.40;;;;;;5052730;28;20051;-54
2022/04/05 07:02:27;;;;;;;8.48;6.32;;;9.80;65.50;;;;;;5054983;28;20033;-51
2022/04/05 07:04:53;;;;;;;7.03;5.75;;;9.90;65.40;;;;;;5054251;28;20060;-61
2022/04/05 07:07:19;;;;;;;8.85;6.32;;;10.00;65.60;;;;;;5053300;28;20028;-50
2022/04/05 07:09:45;;;;;;;8.38;6.00;;;10.00;65.20;;;;;;5072131;28;20033;-52
2022/04/05 07:12:10;;;;;;;8.57;6.50;;;10.10;65.80;;;;;;5071170;28;20063;-51
2022/04/05 07:14:36;;;;;;;7.70;5.80;;;10.10;65.00;;;;;;5053257;28;20032;-53
2022/04/05 07:17:02;;;;;;;12.15;5.97;;;10.10;64.70;;;;;;5070920;28;20036;-51
2022/04/05 07:19:28;;;;;;;11.07;5.68;;;10.10;65.00;;;;;;5073467;28;20016;-52
2022/04/05 07:21:54;;;;;;;7.65;5.70;;;10.20;65.00;;;;;;5075140;28;20444;-52
2022/04/05 07:24:21;;;;;;;9.18;6.22;;;10.10;66.60;;;;;;5056685;28;20488;-51
2022/04/05 07:26:47;;;;;;;11.65;5.85;;;10.10;65.80;;;;;;5075260;28;20052;-54
2022/04/05 07:29:12;;;;;;;8.90;6.32;;;10.10;65.40;;;;;;5074604;28;20105;-53
2022/04/05 07:31:38;;;;;;;8.52;6.18;;;10.20;65.70;;;;;;5074835;28;20029;-53
2022/04/05 07:34:04;;;;;;;8.45;6.07;;;10.20;65.50;;;;;;5074018;28;20036;-55
2022/04/05 07:36:33;;;;;;;8.38;5.70;;;10.20;65.30;;;;;;5075019;28;20382;-52
2022/04/05 07:38:59;;;;;;;6.40;5.68;;;10.30;65.70;;;;;;5071639;28;20481;-55
2022/04/05 07:41:25;;;;;;;8.27;5.63;;;10.30;65.50;;;;;;5074402;28;20027;-51
2022/04/05 07:43:51;;;;;;;9.43;6.28;;;10.40;65.80;;;;;;5056935;28;20142;-53
2022/04/05 07:46:17;;;;;;;8.13;6.15;;;10.40;65.80;;;;;;5055198;28;20485;-50
2022/04/05 07:48:42;;;;;;;12.45;6.05;;;10.50;66.00;;;;;;5055661;28;20031;-55
2022/04/05 07:51:09;;;;;;;9.48;6.43;;;10.40;66.50;;;;;;5073804;28;20024;-51
2022/04/05 07:53:34;;;;;;;7.47;6.32;;;10.40;67.20;;;;;;5055890;28;20036;-54
2022/04/05 07:56:00;;;;;;;11.73;6.15;;;10.40;67.10;;;;;;5055660;28;20373;-56
2022/04/05 07:58:26;;;;;;;8.38;6.45;;;10.40;67.10;;;;;;5055688;28;20078;-54
2022/04/05 08:00:52;;;;;;;9.07;6.18;;;10.40;69.00;;;;;;5054982;28;20048;-56
2022/04/05 08:03:18;;;;;;;7.70;6.30;;;10.30;69.80;;;;;;5073467;28;20021;-53
2022/04/05 08:05:44;;;;;;;8.27;6.00;;;10.30;69.60;;;;;;5074433;28;20036;-56
2022/04/05 08:08:10;;;;;;;7.95;5.90;;;10.20;68.90;;;;;;5073846;28;20067;-53
2022/04/05 08:10:36;;;;;;;11.80;6.05;;;10.20;68.70;;;;;;5056371;28;20461;-55
2022/04/05 08:13:02;;;;;;;7.78;6.20;;;10.20;68.00;;;;;;5073655;28;20075;-56
2022/04/05 08:15:28;;;;;;;9.27;6.60;;;10.40;67.90;;;;;;5074256;28;20027;-54
2022/04/05 08:17:54;;;;;;;13.48;7.03;;;10.50;67.20;;;;;;5073860;28;20033;-56
2022/04/05 08:20:20;;;;;;;8.18;6.57;;;10.50;66.40;;;;;;5073337;28;20033;-55
2022/04/05 08:22:47;;;;;;;11.02;6.45;;;10.60;65.90;;;;;;5056103;28;20027;-57
2022/04/05 08:25:15;;;;;;;9.90;5.80;;;10.60;65.90;;;;;;5055908;28;20036;-53
2022/04/05 08:27:46;;;;;;;7.97;6.07;;;10.60;66.10;;;;;;5073861;28;20462;-54
2022/04/05 08:30:15;;;;;;;8.50;5.53;;;10.70;65.90;;;;;;5055133;28;20107;-55
2022/04/05 08:32:42;;;;;;;11.15;6.03;;;10.80;64.90;;;;;;5055857;28;20115;-53
2022/04/05 08:35:10;;;;;;;9.25;4.85;;;10.90;65.20;;;;;;5073456;28;20031;-52
2022/04/05 08:37:35;;;;;;;6.47;5.20;;;11.00;63.70;;;;;;5056032;28;20028;-53
2022/04/05 08:40:06;;;;;;;6.35;4.78;;;11.10;63.80;;;;;;5055317;28;20488;-55
2022/04/05 08:42:36;;;;;;;7.70;4.93;;;11.20;62.60;;;;;;5074228;28;20029;-51
2022/04/05 08:45:04;;;;;;;8.02;5.28;;;11.20;62.80;;;;;;5073348;28;20103;-52
2022/04/05 08:47:32;;;;;;;5.68;4.20;;;11.30;62.20;;;;;;5055712;28;20024;-56
2022/04/05 08:49:59;;;;;;;9.45;5.00;;;11.50;61.60;;;;;;5055538;28;20024;-54
2022/04/05 08:52:26;;;;;;;7.03;4.43;;;11.60;61.10;;;;;;5056001;28;20457;-54
2022/04/05 08:54:52;;;;;;;8.80;4.80;;;11.80;60.20;;;;;;5073716;28;20035;-57
2022/04/05 08:57:17;;;;;;;5.57;4.45;;;11.90;59.60;;;;;;5073010;28;20032;-55
2022/04/05 08:59:43;;;;;;;6.57;4.32;;;12.00;59.40;;;;;;5072845;28;20128;-53
2022/04/05 09:02:09;;;;;;;8.30;4.32;;;12.00;59.10;;;;;;5055022;28;20032;-53
2022/04/05 09:04:34;;;;;;;8.27;4.07;;;12.00;58.60;;;;;;5055138;28;20024;-53
2022/04/05 09:07:21;;;;;;;5.63;3.83;;;12.00;58.70;;;;;;5055337;28;20036;-67
2022/04/05 09:10:09;;;;;;;5.72;3.28;;;12.00;58.30;;;;;;5073163;28;20025;-54
2022/04/05 09:12:44;;;;;;;7.05;3.72;;;12.10;58.00;;;;;;5073370;28;20362;-51
2022/04/05 09:15:24;;;;;;;5.03;3.42;;;12.10;58.30;;;;;;5054796;28;20060;-50
2022/04/05 09:17:50;;;;;;;4.90;3.40;;;12.10;57.80;;;;;;5073485;28;20044;-53
2022/04/05 09:20:18;;;;;;;3.88;3.22;;;12.20;58.00;;;;;;5072606;28;20097;-53
2022/04/05 09:22:44;;;;;;;4.93;3.78;;;12.20;58.10;;;;;;5072861;28;20050;-51
2022/04/05 09:25:15;;;;;;;4.28;3.45;;;12.50;57.60;;;;;;5072653;28;20366;-53
2022/04/05 09:27:45;;;;;;;5.00;3.65;;;12.50;57.60;;;;;;5073294;28;20024;-53
2022/04/05 09:30:16;;;;;;;4.15;3.38;;;12.60;57.10;;;;;;5053901;28;20032;-53
2022/04/05 09:32:44;;;;;;;4.63;3.45;;;12.80;57.10;;;;;;5055199;28;20113;-51
2022/04/05 09:35:11;;;;;;;4.63;3.63;;;13.10;56.20;;;;;;5072341;28;20020;-59
2022/04/05 09:37:40;;;;;;;4.05;3.42;;;13.50;55.40;;;;;;5072658;28;20035;-52
2022/04/05 09:40:20;;;;;;;3.63;2.70;;;13.50;54.30;;;;;;5072075;28;20024;-62
2022/04/05 09:43:09;;;;;;;5.68;3.53;;;13.50;53.80;;;;;;5072316;28;20085;-53
2022/04/05 09:46:02;;;;;;;5.57;3.60;;;13.70;54.30;;;;;;5072394;28;20021;-55
2022/04/05 09:48:38;;;;;;;5.00;3.03;;;13.70;53.60;;;;;;5054041;28;20047;-53
2022/04/05 09:51:05;;;;;;;3.58;2.90;;;13.90;53.00;;;;;;5072265;28;20025;-65
2022/04/05 09:53:50;;;;;;;5.63;2.95;;;14.00;52.70;;;;;;5054252;28;20032;-52
2022/04/05 09:56:19;;;;;;;6.70;3.20;;;14.10;51.70;;;;;;5071589;28;20020;-51
2022/04/05 09:58:50;;;;;;;6.85;2.70;;;14.30;51.80;;;;;;5054007;28;20029;-54
2022/04/05 10:01:20;;;;;;;3.80;2.72;;;14.40;51.20;;;;;;5053555;28;20086;-53
2022/04/05 10:04:05;;;;;;;4.40;3.03;;;14.20;51.70;;;;;;5053843;28;20028;-54
2022/04/05 10:06:33;;;;;;;5.03;3.20;;;14.20;52.10;;;;;;5072166;28;20039;-54
2022/04/05 10:09:00;;;;;;;4.50;3.08;;;14.60;51.90;;;;;;5072356;28;20029;-52
2022/04/05 10:11:30;;;;;;;3.85;2.92;;;14.60;50.70;;;;;;5053203;28;20289;-57
2022/04/05 10:13:57;;;;;;;4.38;2.60;;;14.60;51.00;;;;;;5054316;28;20119;-56
2022/04/05 10:16:31;;;;;;;5.03;2.40;;;14.80;50.60;;;;;;5053596;28;20024;-53
2022/04/05 10:18:58;;;;;;;6.43;3.15;;;14.70;49.80;;;;;;5054134;28;20032;-52
2022/04/05 10:21:36;;;;;;;3.38;2.40;;;14.70;50.20;;;;;;5071834;28;20037;-54
2022/04/05 10:24:03;;;;;;;5.40;2.58;;;14.80;49.90;;;;;;5071784;28;20028;-53
2022/04/05 10:26:32;;;;;;;4.38;2.13;;;14.70;49.90;;;;;;5053838;28;20029;-58
2022/04/05 10:28:59;;;;;;;7.07;2.55;;;14.80;50.30;;;;;;5072149;28;20116;-61
2022/04/05 10:31:36;;;;;;;4.78;2.60;;;14.70;50.20;;;;;;5053265;28;20025;-55
2022/04/05 10:34:23;;;;;;;3.70;2.50;;;14.90;50.00;;;;;;5072028;28;20064;-54
2022/04/05 10:37:19;;;;;;;3.13;2.30;;;14.90;49.70;;;;;;5054682;28;20024;-53
2022/04/05 10:40:05;;;;;;;4.13;2.60;;;15.00;49.60;;;;;;5047175;28;20478;-49
2022/04/05 10:42:48;;;;;;;4.53;2.33;;;14.90;49.80;;;;;;5039223;28;20040;-51
2022/04/05 10:45:16;;;;;;;4.10;2.78;;;14.90;49.50;;;;;;5053644;28;20035;-52
2022/04/05 10:48:00;;;;;;;3.97;2.40;;;14.80;50.00;;;;;;5072008;28;20040;-55
2022/04/05 10:50:27;;;;;;;3.83;2.33;;;14.80;49.80;;;;;;5053440;28;20082;-58
2022/04/05 10:53:17;;;;;;;4.30;2.53;;;14.80;50.20;;;;;;5071901;28;20078;-50
2022/04/05 10:56:09;;;;;;;7.53;2.22;;;15.00;49.60;;;;;;5075772;28;20028;-54
2022/04/05 10:58:36;;;;;;;3.78;2.53;;;14.70;50.00;;;;;;5075678;28;20017;-51
2022/04/05 11:01:24;;;;;;;9.75;2.80;;;14.60;50.60;;;;;;5075846;28;20052;-53
2022/04/05 11:04:20;;;;;;;3.63;2.40;;;14.70;50.30;;;;;;5075140;28;20107;-52
2022/04/05 11:07:01;;;;;;;3.30;2.80;;;14.80;50.20;;;;;;5075655;28;20043;-57
2022/04/05 11:09:33;;;;;;;3.15;2.40;;;14.90;49.70;;;;;;5075365;28;20025;-54
2022/04/05 11:12:05;;;;;;;4.45;2.60;;;14.90;50.30;;;;;;5075085;28;20024;-55
2022/04/05 11:14:52;;;;;;;5.20;2.67;;;14.80;50.30;;;;;;5074530;28;20036;-52
2022/04/05 11:17:21;;;;;;;3.53;2.65;;;14.80;51.20;;;;;;5074615;28;20389;-53
2022/04/05 11:19:52;;;;;;;6.78;2.95;;;14.60;51.60;;;;;;5057321;28;20035;-52
2022/04/05 11:22:21;;;;;;;6.85;2.72;;;14.40;52.40;;;;;;5074785;28;20024;-55
2022/04/05 11:25:03;;;;;;;4.50;2.65;;;14.40;52.00;;;;;;5075323;28;20424;-54
2022/04/05 11:27:45;;;;;;;5.47;3.20;;;14.70;51.90;;;;;;5074459;28;20030;-58
2022/04/05 11:30:23;;;;;;;5.90;3.05;;;14.80;51.40;;;;;;5074563;28;20060;-62
2022/04/05 11:33:09;;;;;;;3.55;2.63;;;14.80;52.00;;;;;;5075065;28;20032;-54
2022/04/05 11:36:00;;;;;;;6.85;4.90;;;14.70;53.10;;;;;;5074538;28;20028;-54
2022/04/05 11:38:27;;;;;;;6.18;3.20;;;14.70;55.20;;;;;;5074818;28;20115;-51
2022/04/05 11:40:57;;;;;;;4.90;3.67;;;14.50;55.90;;;;;;5056890;28;20032;-55
2022/04/05 11:43:29;;;;;;;4.80;3.47;;;14.30;56.90;;;;;;5074764;28;20028;-53
2022/04/05 11:45:57;;;;;;;6.35;3.60;;;14.20;57.50;;;;;;5074766;28;20031;-53
2022/04/05 11:48:26;;;;;;;5.40;3.65;;;14.20;57.60;;;;;;5056420;28;20611;-50
2022/04/05 11:50:53;;;;;;;5.22;3.53;;;14.30;57.40;;;;;;5074819;28;20412;-53
2022/04/05 11:53:24;;;;;;;4.20;3.28;;;14.30;58.00;;;;;;5074258;28;20143;-53
2022/04/05 11:56:05;;;;;;;9.25;4.20;;;14.20;58.70;;;;;;5074381;28;20029;-57
2022/04/05 11:58:34;;;;;;;3.65;3.30;;;14.10;58.60;;;;;;5073902;28;20048;-54
2022/04/05 12:01:01;;;;;;;6.57;3.90;;;14.20;58.80;;;;;;5075025;28;20055;-56
2022/04/05 12:03:27;;;;;;;10.60;4.03;;;14.30;57.70;;;;;;5055940;28;20416;-52
2022/04/05 12:05:53;;;;;;;4.63;3.45;;;14.20;57.80;;;;;;5055709;28;20039;-53
2022/04/05 12:08:19;;;;;;;5.22;3.78;;;14.40;57.70;;;;;;5073779;28;20032;-55
2022/04/05 12:10:45;;;;;;;9.00;3.30;;;14.60;57.70;;;;;;5056389;28;20373;-55
2022/04/05 12:13:11;;;;;;;4.35;3.05;;;14.60;57.00;;;;;;5073867;28;20037;-56
2022/04/05 12:15:38;;;;;;;6.38;3.53;;;14.60;57.40;;;;;;5055852;28;20418;-54
2022/04/05 12:18:26;;;;;;;3.83;3.00;;;14.50;61.70;;;;;;5056190;28;20028;-57
2022/04/05 12:21:05;;;;;;;6.85;3.15;;;14.60;60.90;;;;;;5074395;28;20462;-57
2022/04/05 12:23:35;;;;;;;6.75;3.10;;;14.70;58.70;;;;;;5073943;28;20028;-55
2022/04/05 12:26:14;;;;;;;5.68;2.83;;;14.70;57.80;;;;;;5074326;28;20111;-55
2022/04/05 12:28:49;;;;;;;6.60;3.08;;;14.90;57.10;;;;;;5074541;28;20039;-59
2022/04/05 12:31:17;;;;;;;5.70;2.83;;;15.00;57.30;;;;;;5073974;28;20109;-62
2022/04/05 12:33:53;;;;;;;5.90;3.15;;;15.20;57.30;;;;;;5073981;28;20040;-61
2022/04/05 12:36:19;;;;;;;4.45;3.20;;;15.20;56.70;;;;;;5073719;28;20020;-58
2022/04/05 12:38:45;;;;;;;7.88;3.70;;;15.10;56.60;;;;;;5074002;28;20082;-57
2022/04/05 12:41:15;;;;;;;3.88;2.85;;;15.10;57.90;;;;;;5074257;28;20067;-57
2022/04/05 12:43:41;;;;;;;3.50;2.88;;;15.00;57.50;;;;;;5055757;28;20037;-53
2022/04/05 12:46:12;;;;;;;5.68;3.13;;;14.80;57.70;;;;;;5055592;28;20020;-58
2022/04/05 12:48:40;;;;;;;5.03;3.30;;;14.70;57.70;;;;;;5073353;28;20069;-57
2022/04/05 12:51:06;;;;;;;5.25;3.03;;;14.70;58.10;;;;;;5055588;28;20039;-58
2022/04/05 12:53:38;;;;;;;6.57;3.17;;;14.70;58.10;;;;;;5055066;28;20389;-56
2022/04/05 12:56:09;;;;;;;5.50;3.17;;;14.60;58.30;;;;;;5055893;28;20024;-55